createdAt,value
2018-05-27T00:02:18.865Z,16.70
2018-05-27T00:04:52.650Z,16.93
2018-05-27T00:07:26.435Z,15.83
2018-05-27T00:10:00.061Z,15.40
2018-05-27T00:12:33.722Z,15.73
2018-05-27T00:15:07.423Z,14.70
2018-05-27T00:17:41.211Z,16.00
2018-05-27T00:20:14.772Z,16.10
2018-05-27T00:22:48.618Z,14.70
2018-05-27T00:25:22.415Z,15.63
2018-05-27T00:27:56.028Z,16.13
2018-05-27T00:30:29.815Z,14.47
2018-05-27T00:33:03.406Z,15.50
2018-05-27T00:35:37.301Z,14.20
2018-05-27T00:38:11.023Z,15.73
2018-05-27T00:40:44.785Z,15.13
2018-05-27T00:43:18.398Z,15.17
2018-05-27T00:45:52.247Z,15.53
2018-05-27T00:48:25.793Z,15.07
2018-05-27T00:50:59.625Z,14.20
2018-05-27T00:53:45.231Z,15.00
2018-05-27T00:56:19.199Z,16.27
2018-05-27T00:58:52.998Z,15.43
2018-05-27T01:01:26.765Z,16.17
2018-05-27T01:04:00.655Z,17.47
2018-05-27T01:06:34.510Z,18.93
2018-05-27T01:09:08.190Z,17.90
2018-05-27T01:11:41.925Z,16.33
2018-05-27T01:14:15.605Z,20.00
2018-05-27T01:16:49.222Z,17.27
2018-05-27T01:19:22.869Z,17.03
2018-05-27T01:21:56.498Z,15.83
2018-05-27T01:24:30.131Z,16.10
2018-05-27T01:27:03.895Z,17.07
2018-05-27T01:29:37.547Z,17.00
2018-05-27T01:32:11.137Z,16.50
2018-05-27T01:34:44.707Z,17.70
2018-05-27T01:37:18.324Z,18.00
2018-05-27T01:39:51.993Z,17.47
2018-05-27T01:42:25.836Z,18.20
2018-05-27T01:44:59.627Z,17.90
2018-05-27T01:47:33.425Z,18.10
2018-05-27T01:50:06.960Z,17.60
2018-05-27T01:52:41.441Z,15.90
2018-05-27T01:55:15.163Z,16.43
2018-05-27T01:57:48.879Z,17.00
2018-05-27T02:00:22.690Z,16.17
2018-05-27T02:02:56.423Z,17.50
2018-05-27T02:05:30.482Z,16.50
2018-05-27T02:08:04.361Z,16.03
2018-05-27T02:10:38.189Z,16.50
2018-05-27T02:13:11.986Z,16.60
2018-05-27T02:15:45.870Z,17.07
2018-05-27T02:18:19.453Z,16.97
2018-05-27T02:20:53.208Z,17.03
2018-05-27T02:23:27.084Z,18.67
2018-05-27T02:26:00.839Z,19.30
2018-05-27T02:28:34.588Z,18.47
2018-05-27T02:31:08.499Z,19.07
2018-05-27T02:33:42.306Z,19.60
2018-05-27T02:36:16.057Z,18.53
2018-05-27T02:38:49.826Z,18.23
2018-05-27T02:41:23.617Z,18.80
2018-05-27T02:43:57.528Z,18.80
2018-05-27T02:46:31.131Z,19.23
2018-05-27T02:49:05.078Z,19.70
2018-05-27T02:51:39.785Z,18.90
2018-05-27T02:54:13.455Z,17.57
2018-05-27T02:56:47.174Z,22.60
2018-05-27T02:59:20.863Z,24.07
2018-05-27T03:01:54.554Z,22.50
2018-05-27T03:04:28.237Z,21.30
2018-05-27T03:07:01.895Z,24.10
2018-05-27T03:09:35.509Z,21.10
2018-05-27T03:12:09.233Z,21.90
2018-05-27T03:14:43.015Z,21.30
2018-05-27T03:17:16.828Z,20.87
2018-05-27T03:19:50.631Z,22.70
2018-05-27T03:22:24.389Z,21.53
2018-05-27T03:24:58.143Z,22.53
2018-05-27T03:27:31.859Z,21.17
2018-05-27T03:30:06.255Z,21.77
2018-05-27T03:32:39.984Z,21.83
2018-05-27T03:35:13.753Z,20.60
2018-05-27T03:37:47.451Z,20.30
2018-05-27T03:40:21.240Z,22.20
2018-05-27T03:42:54.988Z,22.00
2018-05-27T03:45:28.779Z,23.40
2018-05-27T03:48:02.533Z,22.40
2018-05-27T03:50:36.189Z,20.90
2018-05-27T03:53:09.939Z,22.57
2018-05-27T03:55:43.614Z,22.07
2018-05-27T03:58:17.305Z,20.97
2018-05-27T04:00:50.952Z,21.57
2018-05-27T04:03:24.675Z,21.47
2018-05-27T04:06:10.291Z,20.17
2018-05-27T04:08:44.032Z,20.50
2018-05-27T04:11:17.826Z,21.77
2018-05-27T04:13:51.661Z,19.73
2018-05-27T04:16:25.254Z,21.07
2018-05-27T04:18:58.950Z,23.63
2018-05-27T04:21:32.845Z,25.70
2018-05-27T04:24:06.620Z,28.77
2018-05-27T04:26:40.139Z,26.10
2018-05-27T04:29:13.986Z,28.87
2018-05-27T04:31:47.619Z,26.13
2018-05-27T04:34:21.174Z,28.07
2018-05-27T04:36:55.904Z,25.70
2018-05-27T04:39:29.690Z,24.90
2018-05-27T04:42:03.569Z,24.43
2018-05-27T04:44:37.384Z,26.33
2018-05-27T04:47:11.195Z,27.70
2018-05-27T04:49:45.073Z,26.73
2018-05-27T04:52:18.831Z,24.80
2018-05-27T04:54:52.552Z,23.53
2018-05-27T04:57:26.313Z,26.10
2018-05-27T05:00:00.188Z,24.47
2018-05-27T05:02:33.979Z,22.90
2018-05-27T05:05:07.640Z,22.13
2018-05-27T05:07:41.355Z,24.20
2018-05-27T05:10:15.188Z,25.07
2018-05-27T05:12:48.929Z,24.53
2018-05-27T05:15:22.859Z,25.20
2018-05-27T05:17:56.764Z,25.50
2018-05-27T05:20:30.669Z,25.97
2018-05-27T05:23:04.942Z,24.00
2018-05-27T05:25:38.797Z,22.87
2018-05-27T05:28:12.484Z,23.40
2018-05-27T05:30:46.310Z,20.80
2018-05-27T05:33:20.107Z,21.67
2018-05-27T05:35:53.975Z,20.37
2018-05-27T05:38:27.850Z,20.07
2018-05-27T05:41:01.618Z,19.17
2018-05-27T05:43:35.408Z,19.70
2018-05-27T05:46:09.186Z,21.17
2018-05-27T05:48:42.863Z,19.83
2018-05-27T05:51:16.422Z,18.10
2018-05-27T05:53:50.283Z,17.50
2018-05-27T05:56:24.044Z,17.73
2018-05-27T05:58:57.617Z,19.90
2018-05-27T06:01:31.451Z,17.43
2018-05-27T06:04:05.252Z,18.10
2018-05-27T06:06:39.450Z,19.13
2018-05-27T06:09:13.251Z,18.67
2018-05-27T06:11:46.914Z,19.13
2018-05-27T06:14:20.736Z,18.80
2018-05-27T06:16:54.591Z,17.97
2018-05-27T06:19:28.342Z,16.40
2018-05-27T06:22:02.137Z,17.90
2018-05-27T06:24:35.998Z,16.60
2018-05-27T06:27:09.869Z,15.27
2018-05-27T06:29:43.665Z,15.53
2018-05-27T06:32:17.397Z,15.63
2018-05-27T06:34:51.010Z,16.30
2018-05-27T06:37:24.948Z,14.40
2018-05-27T06:39:58.713Z,15.27
2018-05-27T06:42:32.340Z,14.57
2018-05-27T06:45:06.072Z,13.03
2018-05-27T06:47:39.870Z,14.50
2018-05-27T06:50:13.735Z,13.67
2018-05-27T06:52:47.546Z,13.77
2018-05-27T06:55:21.061Z,13.20
2018-05-27T06:57:54.756Z,13.00
2018-05-27T07:00:28.371Z,12.10
2018-05-27T07:03:02.012Z,11.13
2018-05-27T07:05:35.895Z,11.50
2018-05-27T07:08:09.718Z,11.53
2018-05-27T07:10:43.491Z,10.80
2018-05-27T07:13:17.260Z,11.03
2018-05-27T07:15:51.120Z,11.10
2018-05-27T07:18:24.930Z,10.83
2018-05-27T07:20:58.744Z,9.63
2018-05-27T07:23:32.554Z,10.60
2018-05-27T07:26:06.358Z,9.60
2018-05-27T07:28:40.166Z,9.90
2018-05-27T07:31:13.892Z,9.77
2018-05-27T07:33:47.500Z,10.03
2018-05-27T07:36:21.113Z,9.63
2018-05-27T07:38:54.894Z,8.80
2018-05-27T07:41:28.661Z,9.30
2018-05-27T07:44:02.686Z,9.27
2018-05-27T07:46:36.499Z,10.40
2018-05-27T07:49:10.248Z,9.30
2018-05-27T07:51:43.855Z,8.93
2018-05-27T07:54:23.508Z,8.80
2018-05-27T07:56:57.269Z,9.10
2018-05-27T07:59:31.102Z,8.97
2018-05-27T08:02:04.674Z,9.80
2018-05-27T08:04:38.544Z,8.60
2018-05-27T08:07:12.273Z,7.93
2018-05-27T08:09:45.841Z,8.97
2018-05-27T08:12:19.507Z,8.70
2018-05-27T08:14:53.075Z,9.33
2018-05-27T08:17:26.868Z,11.03
2018-05-27T08:20:00.499Z,9.57
2018-05-27T08:22:34.274Z,9.70
2018-05-27T08:25:08.082Z,9.40
2018-05-27T08:27:41.826Z,9.30
2018-05-27T08:30:15.527Z,9.27
2018-05-27T08:32:49.339Z,7.83
2018-05-27T08:35:22.883Z,7.60
2018-05-27T08:37:56.503Z,8.60
2018-05-27T08:40:30.341Z,8.17
2018-05-27T08:43:04.986Z,7.50
2018-05-27T08:45:38.544Z,7.33
2018-05-27T08:48:12.389Z,7.87
2018-05-27T08:50:46.227Z,8.07
2018-05-27T08:53:19.931Z,8.40
2018-05-27T08:55:53.783Z,7.30
2018-05-27T08:58:27.538Z,7.50
2018-05-27T09:01:01.405Z,7.57
2018-05-27T09:03:35.152Z,7.20
2018-05-27T09:06:08.920Z,7.47
2018-05-27T09:08:42.634Z,7.97
2018-05-27T09:11:16.232Z,7.43
2018-05-27T09:13:50.017Z,6.93
2018-05-27T09:16:23.811Z,6.60
2018-05-27T09:18:57.586Z,5.80
2018-05-27T09:21:31.405Z,6.47
2018-05-27T09:24:05.040Z,6.60
2018-05-27T09:26:38.932Z,6.40
2018-05-27T09:29:12.721Z,6.20
2018-05-27T09:31:46.341Z,6.10
2018-05-27T09:34:20.038Z,6.33
2018-05-27T09:36:53.820Z,6.57
2018-05-27T09:39:27.499Z,6.23
2018-05-27T09:42:01.115Z,5.70
2018-05-27T09:44:34.760Z,5.80
2018-05-27T09:47:08.415Z,6.10
2018-05-27T09:49:42.325Z,6.37
2018-05-27T09:52:15.972Z,6.10
2018-05-27T09:54:49.753Z,6.13
2018-05-27T09:57:23.609Z,7.00
2018-05-27T09:59:57.343Z,6.07
2018-05-27T10:02:31.020Z,6.23
2018-05-27T10:05:04.825Z,5.60
2018-05-27T10:07:38.723Z,5.70
2018-05-27T10:10:12.653Z,4.87
2018-05-27T10:12:46.475Z,5.43
2018-05-27T10:15:20.356Z,5.70
2018-05-27T10:17:53.959Z,5.27
2018-05-27T10:20:27.660Z,5.43
2018-05-27T10:23:01.367Z,5.07
2018-05-27T10:25:35.039Z,5.00
2018-05-27T10:28:08.833Z,5.27
2018-05-27T10:30:42.684Z,5.20
2018-05-27T10:33:16.378Z,5.50
2018-05-27T10:35:50.183Z,4.93
2018-05-27T10:38:23.794Z,6.20
2018-05-27T10:40:57.447Z,4.77
2018-05-27T10:43:31.250Z,5.10
2018-05-27T10:46:04.891Z,4.47
2018-05-27T10:48:38.653Z,5.50
2018-05-27T10:51:12.363Z,5.37
2018-05-27T10:53:46.184Z,5.53
2018-05-27T10:56:19.957Z,5.30
2018-05-27T10:58:54.929Z,4.77
2018-05-27T11:01:32.690Z,5.00
2018-05-27T11:04:22.200Z,5.03
2018-05-27T11:07:14.463Z,5.67
2018-05-27T11:09:53.458Z,4.40
2018-05-27T11:12:43.401Z,5.10
2018-05-27T11:15:18.220Z,4.17
2018-05-27T11:17:52.027Z,4.70
2018-05-27T11:20:25.903Z,5.03
2018-05-27T11:22:59.539Z,4.53
2018-05-27T11:25:33.377Z,5.00
2018-05-27T11:28:07.159Z,5.20
2018-05-27T11:30:40.918Z,5.67
2018-05-27T11:33:14.569Z,5.20
2018-05-27T11:35:48.404Z,5.00
2018-05-27T11:38:22.192Z,4.37
2018-05-27T11:40:55.898Z,5.10
2018-05-27T11:43:29.754Z,5.57
2018-05-27T11:46:03.482Z,5.30
2018-05-27T11:48:37.416Z,5.50
2018-05-27T11:51:11.097Z,5.47
2018-05-27T11:53:44.805Z,4.77
2018-05-27T11:56:18.636Z,5.20
2018-05-27T11:58:52.426Z,5.00
2018-05-27T12:01:27.711Z,4.80
2018-05-27T12:04:01.332Z,5.27
2018-05-27T12:06:35.222Z,5.10
2018-05-27T12:09:09.004Z,5.30
2018-05-27T12:11:42.827Z,5.50
2018-05-27T12:14:16.542Z,5.60
2018-05-27T12:16:50.243Z,6.07
2018-05-27T12:19:24.816Z,5.90
2018-05-27T12:21:58.399Z,5.60
2018-05-27T12:24:32.283Z,6.20
2018-05-27T12:27:06.088Z,5.33
2018-05-27T12:29:39.865Z,5.23
2018-05-27T12:32:13.654Z,5.73
2018-05-27T12:34:47.527Z,4.90
2018-05-27T12:37:21.204Z,4.83
2018-05-27T12:39:55.042Z,4.93
2018-05-27T12:42:28.858Z,4.57
2018-05-27T12:45:02.568Z,5.07
2018-05-27T12:47:37.010Z,5.03
2018-05-27T12:50:10.812Z,4.73
2018-05-27T12:52:44.631Z,5.20
2018-05-27T12:55:18.379Z,4.87
2018-05-27T12:57:52.113Z,5.00
2018-05-27T13:00:25.923Z,5.07
2018-05-27T13:02:59.528Z,4.80
2018-05-27T13:05:33.119Z,5.70
2018-05-27T13:08:06.779Z,6.63
2018-05-27T13:10:40.692Z,5.77
2018-05-27T13:13:14.330Z,5.57
2018-05-27T13:15:48.128Z,6.13
2018-05-27T13:18:21.832Z,6.03
2018-05-27T13:20:55.411Z,5.37
2018-05-27T13:23:29.124Z,5.20
2018-05-27T13:26:02.834Z,6.13
2018-05-27T13:28:36.714Z,6.20
2018-05-27T13:31:10.394Z,5.60
2018-05-27T13:33:44.314Z,6.07
2018-05-27T13:36:17.947Z,6.10
2018-05-27T13:38:51.815Z,6.00
2018-05-27T13:41:25.510Z,5.37
2018-05-27T13:43:59.314Z,6.07
2018-05-27T13:46:32.953Z,5.37
2018-05-27T13:49:06.835Z,6.00
2018-05-27T13:51:40.595Z,5.80
2018-05-27T13:54:14.362Z,6.20
2018-05-27T13:56:48.129Z,5.60
2018-05-27T13:59:21.925Z,4.93
2018-05-27T14:01:55.721Z,5.30
2018-05-27T14:04:29.724Z,5.50
2018-05-27T14:07:03.419Z,5.17
2018-05-27T14:09:37.216Z,5.30
2018-05-27T14:12:11.017Z,4.73
2018-05-27T14:14:44.774Z,5.47
2018-05-27T14:17:18.571Z,5.50
2018-05-27T14:19:52.315Z,5.13
2018-05-27T14:22:25.940Z,5.60
2018-05-27T14:24:59.716Z,5.17
2018-05-27T14:27:33.514Z,6.10
2018-05-27T14:30:07.325Z,5.63
2018-05-27T14:32:41.204Z,5.63
2018-05-27T14:35:14.973Z,5.17
2018-05-27T14:37:48.759Z,5.00
2018-05-27T14:40:22.400Z,5.30
2018-05-27T14:42:56.247Z,5.63
2018-05-27T14:45:29.823Z,5.10
2018-05-27T14:48:03.706Z,4.87
2018-05-27T14:50:37.484Z,4.90
2018-05-27T14:53:11.285Z,5.03
2018-05-27T14:55:44.905Z,5.80
2018-05-27T14:58:18.712Z,4.77
2018-05-27T15:00:52.470Z,5.10
2018-05-27T15:03:26.292Z,4.83
2018-05-27T15:05:59.936Z,5.30
2018-05-27T15:08:33.700Z,4.67
2018-05-27T15:11:07.548Z,4.70
2018-05-27T15:13:41.231Z,5.00
2018-05-27T15:16:15.028Z,4.33
2018-05-27T15:19:01.632Z,4.77
2018-05-27T15:21:51.290Z,4.40
2018-05-27T15:24:41.560Z,5.07
2018-05-27T15:27:15.253Z,4.70
2018-05-27T15:29:48.897Z,4.43
2018-05-27T15:32:22.723Z,4.93
2018-05-27T15:34:56.375Z,4.43
2018-05-27T15:37:30.236Z,5.07
2018-05-27T15:40:04.029Z,4.53
2018-05-27T15:42:37.682Z,4.93
2018-05-27T15:45:11.532Z,4.67
2018-05-27T15:47:45.437Z,4.83
2018-05-27T15:50:19.241Z,4.60
2018-05-27T15:52:52.983Z,4.47
2018-05-27T15:55:26.667Z,4.43
2018-05-27T15:58:00.480Z,4.80
2018-05-27T16:00:34.247Z,4.90
2018-05-27T16:03:07.963Z,4.50
2018-05-27T16:05:41.627Z,4.53
2018-05-27T16:08:15.338Z,5.27
2018-05-27T16:10:49.148Z,4.70
2018-05-27T16:13:22.706Z,4.50
2018-05-27T16:15:56.477Z,5.20
2018-05-27T16:18:30.233Z,4.70
2018-05-27T16:21:04.140Z,4.10
2018-05-27T16:23:38.179Z,5.00
2018-05-27T16:26:11.792Z,5.30
2018-05-27T16:28:45.618Z,5.03
2018-05-27T16:31:19.424Z,4.93
2018-05-27T16:33:53.025Z,5.57
2018-05-27T16:36:26.672Z,5.37
2018-05-27T16:39:00.442Z,4.97
2018-05-27T16:41:34.120Z,5.77
2018-05-27T16:44:07.815Z,5.10
2018-05-27T16:46:41.462Z,5.07
2018-05-27T16:49:15.343Z,5.50
2018-05-27T16:51:49.156Z,4.83
2018-05-27T16:54:22.748Z,4.70
2018-05-27T16:56:56.606Z,5.50
2018-05-27T16:59:30.303Z,4.97
2018-05-27T17:02:04.086Z,5.83
2018-05-27T17:04:37.910Z,5.00
2018-05-27T17:07:11.570Z,5.93
2018-05-27T17:09:45.249Z,5.53
2018-05-27T17:12:19.063Z,6.20
2018-05-27T17:14:52.710Z,6.00
2018-05-27T17:17:26.314Z,5.53
2018-05-27T17:20:00.086Z,5.77
2018-05-27T17:22:33.798Z,6.67
2018-05-27T17:25:07.536Z,6.40
2018-05-27T17:27:41.303Z,5.30
2018-05-27T17:30:14.954Z,6.67
2018-05-27T17:32:48.543Z,5.70
2018-05-27T17:35:22.264Z,4.63
2018-05-27T17:37:56.051Z,6.20
2018-05-27T17:40:29.898Z,6.30
2018-05-27T17:43:03.725Z,6.27
2018-05-27T17:45:37.342Z,5.50
2018-05-27T17:48:13.053Z,6.30
2018-05-27T17:50:46.811Z,6.60
2018-05-27T17:53:20.598Z,6.33
2018-05-27T17:55:54.269Z,6.90
2018-05-27T17:58:28.052Z,5.80
2018-05-27T18:01:01.925Z,5.90
2018-05-27T18:03:35.698Z,5.60
2018-05-27T18:06:09.279Z,6.17
2018-05-27T18:08:43.118Z,6.70
2018-05-27T18:11:16.797Z,6.37
2018-05-27T18:13:51.526Z,7.13
2018-05-27T18:16:25.077Z,6.90
2018-05-27T18:18:58.832Z,7.30
2018-05-27T18:21:32.587Z,6.80
2018-05-27T18:24:06.194Z,8.07
2018-05-27T18:26:39.967Z,6.83
2018-05-27T18:29:13.792Z,6.57
2018-05-27T18:31:47.545Z,6.77
2018-05-27T18:34:21.314Z,7.30
2018-05-27T18:36:54.814Z,7.60
2018-05-27T18:39:28.659Z,7.77
2018-05-27T18:42:02.236Z,8.30
2018-05-27T18:44:35.922Z,7.70
2018-05-27T18:47:09.614Z,8.17
2018-05-27T18:49:43.387Z,8.10
2018-05-27T18:52:17.168Z,7.87
2018-05-27T18:54:50.665Z,8.00
2018-05-27T18:57:24.305Z,8.20
2018-05-27T18:59:58.111Z,8.43
2018-05-27T19:02:31.770Z,10.80
2018-05-27T19:05:05.701Z,10.40
2018-05-27T19:07:39.609Z,9.37
2018-05-27T19:10:13.338Z,8.53
2018-05-27T19:12:47.008Z,8.60
2018-05-27T19:15:20.666Z,8.03
2018-05-27T19:17:54.293Z,7.63
2018-05-27T19:20:28.055Z,8.10
2018-05-27T19:23:01.731Z,7.13
2018-05-27T19:25:35.368Z,8.13
2018-05-27T19:28:09.108Z,8.63
2018-05-27T19:30:42.872Z,8.97
2018-05-27T19:33:16.614Z,8.20
2018-05-27T19:35:50.451Z,8.73
2018-05-27T19:38:24.093Z,9.10
2018-05-27T19:40:57.911Z,8.40
2018-05-27T19:43:31.697Z,9.33
2018-05-27T19:46:05.466Z,9.00
2018-05-27T19:48:39.247Z,8.57
2018-05-27T19:51:13.033Z,8.47
2018-05-27T19:53:46.762Z,9.10
2018-05-27T19:56:20.535Z,9.83
2018-05-27T19:58:54.183Z,8.70
2018-05-27T20:01:27.998Z,9.47
2018-05-27T20:04:01.915Z,7.87
2018-05-27T20:06:35.744Z,7.60
2018-05-27T20:09:09.331Z,8.37
2018-05-27T20:11:42.957Z,7.63
2018-05-27T20:14:16.617Z,8.50
2018-05-27T20:16:50.265Z,9.60
2018-05-27T20:19:24.024Z,10.53
2018-05-27T20:21:57.685Z,11.43
2018-05-27T20:24:31.480Z,9.80
2018-05-27T20:27:05.403Z,9.23
2018-05-27T20:29:39.118Z,10.50
2018-05-27T20:32:12.951Z,10.47
2018-05-27T20:34:46.735Z,10.20
2018-05-27T20:37:20.484Z,9.50
2018-05-27T20:39:54.219Z,10.37
2018-05-27T20:42:28.066Z,10.60
2018-05-27T20:45:01.898Z,9.60
2018-05-27T20:47:36.235Z,10.80
2018-05-27T20:50:10.076Z,10.53
2018-05-27T20:52:43.644Z,9.77
2018-05-27T20:55:17.460Z,10.93
2018-05-27T20:57:51.336Z,11.07
2018-05-27T21:00:25.053Z,11.20
2018-05-27T21:02:58.893Z,10.73
2018-05-27T21:05:32.689Z,10.07
2018-05-27T21:08:06.358Z,12.00
2018-05-27T21:10:40.197Z,11.00
2018-05-27T21:13:14.026Z,11.33
2018-05-27T21:15:47.823Z,11.93
2018-05-27T21:18:21.613Z,11.70
2018-05-27T21:20:55.387Z,11.03
2018-05-27T21:23:29.182Z,10.53
2018-05-27T21:26:03.009Z,11.33
2018-05-27T21:28:36.812Z,11.77
2018-05-27T21:31:10.652Z,11.27
2018-05-27T21:33:44.336Z,11.90
2018-05-27T21:36:18.149Z,12.17
2018-05-27T21:38:51.760Z,11.90
2018-05-27T21:41:25.545Z,12.73
2018-05-27T21:43:59.415Z,11.63
2018-05-27T21:46:33.267Z,12.27
2018-05-27T21:49:09.027Z,11.77
2018-05-27T21:51:42.768Z,12.87
2018-05-27T21:54:16.527Z,14.33
2018-05-27T21:56:50.366Z,13.17
2018-05-27T21:59:24.051Z,13.13
2018-05-27T22:01:57.790Z,13.53
2018-05-27T22:04:31.763Z,11.93
2018-05-27T22:07:05.488Z,12.43
2018-05-27T22:09:39.193Z,12.77
2018-05-27T22:12:12.890Z,12.67
2018-05-27T22:14:46.693Z,12.07
2018-05-27T22:17:20.541Z,12.60
2018-05-27T22:19:54.302Z,12.57
2018-05-27T22:22:28.157Z,14.13
2018-05-27T22:25:01.939Z,13.23
2018-05-27T22:27:35.791Z,12.93
2018-05-27T22:30:09.413Z,12.97
2018-05-27T22:32:43.090Z,12.77
2018-05-27T22:35:16.867Z,12.60
2018-05-27T22:37:50.848Z,12.20
2018-05-27T22:40:24.565Z,13.10
2018-05-27T22:42:58.446Z,13.60
2018-05-27T22:45:32.288Z,14.00
2018-05-27T22:48:06.054Z,14.27
2018-05-27T22:50:39.739Z,14.80
2018-05-27T22:53:13.397Z,15.23
2018-05-27T22:55:47.097Z,16.17
2018-05-27T22:58:20.870Z,15.50
2018-05-27T23:00:54.691Z,14.93
2018-05-27T23:03:28.490Z,14.43
2018-05-27T23:06:02.120Z,15.40
2018-05-27T23:08:35.908Z,15.60
2018-05-27T23:11:09.559Z,15.30
2018-05-27T23:13:43.327Z,14.00
2018-05-27T23:16:17.218Z,14.87
2018-05-27T23:18:51.037Z,16.67
2018-05-27T23:21:24.860Z,17.60
2018-05-27T23:23:58.668Z,17.50
2018-05-27T23:26:32.497Z,17.63
2018-05-27T23:29:06.461Z,17.47
2018-05-27T23:31:40.200Z,18.90
2018-05-27T23:34:13.995Z,18.57
2018-05-27T23:36:47.766Z,17.57
2018-05-27T23:39:21.682Z,17.30
2018-05-27T23:41:55.494Z,17.30
2018-05-27T23:44:29.317Z,17.10
2018-05-27T23:47:02.976Z,19.13
2018-05-27T23:49:36.807Z,18.03
2018-05-27T23:52:10.667Z,17.57
2018-05-27T23:54:44.456Z,18.07
2018-05-27T23:57:18.247Z,16.13
2018-05-27T23:59:52.032Z,16.10
